createdAt,value
2023-04-21T00:00:09.998Z,58.02
2023-04-21T00:02:15.713Z,57.84
2023-04-21T00:04:18.072Z,58.02
2023-04-21T00:06:22.991Z,58.13
2023-04-21T00:08:26.548Z,58.08
2023-04-21T00:10:28.189Z,57.98
2023-04-21T00:12:29.768Z,57.88
2023-04-21T00:14:31.404Z,57.77
2023-04-21T00:16:33.208Z,57.98
2023-04-21T00:18:34.983Z,57.75
2023-04-21T00:20:36.950Z,57.85
2023-04-21T00:22:38.553Z,57.74
2023-04-21T00:24:40.317Z,57.92
2023-04-21T00:26:41.920Z,57.99
2023-04-21T00:28:43.553Z,58.01
2023-04-21T00:30:45.189Z,58.15
2023-04-21T00:32:46.778Z,58.08
2023-04-21T00:34:48.430Z,58.29
2023-04-21T00:36:49.981Z,58.09
2023-04-21T00:38:51.635Z,58.02
2023-04-21T00:40:53.260Z,58.25
2023-04-21T00:42:54.861Z,58.14
2023-04-21T00:44:56.839Z,58.13
2023-04-21T00:46:58.593Z,57.87
2023-04-21T00:49:01.109Z,57.86
2023-04-21T00:51:02.716Z,57.68
2023-04-21T00:53:04.458Z,57.87
2023-04-21T00:55:07.093Z,57.77
2023-04-21T00:57:09.593Z,57.65
2023-04-21T00:59:11.275Z,57.40
2023-04-21T01:01:13.801Z,57.20
2023-04-21T01:03:16.058Z,57.39
2023-04-21T01:05:18.310Z,57.50
2023-04-21T01:07:20.499Z,57.52
2023-04-21T01:09:22.118Z,57.56
2023-04-21T01:11:23.949Z,57.53
2023-04-21T01:13:25.642Z,57.67
2023-04-21T01:15:30.985Z,57.70
2023-04-21T01:17:32.611Z,57.70
2023-04-21T01:19:39.442Z,57.88
2023-04-21T01:21:41.636Z,57.72
2023-04-21T01:23:43.497Z,57.79
2023-04-21T01:25:45.144Z,57.74
2023-04-21T01:27:46.892Z,57.71
2023-04-21T01:29:52.709Z,57.68
2023-04-21T01:31:54.383Z,57.95
2023-04-21T01:33:56.117Z,57.73
2023-04-21T01:35:57.933Z,57.63
2023-04-21T01:37:59.794Z,57.98
2023-04-21T01:40:05.410Z,57.85
2023-04-21T01:42:07.554Z,57.56
2023-04-21T01:44:09.152Z,57.49
2023-04-21T01:46:10.920Z,57.58
2023-04-21T01:48:12.679Z,57.54
2023-04-21T01:50:14.315Z,57.42
2023-04-21T01:52:16.180Z,57.49
2023-04-21T01:54:17.875Z,57.73
2023-04-21T01:56:19.680Z,57.53
2023-04-21T01:58:22.009Z,57.42
2023-04-21T02:00:23.951Z,57.64
2023-04-21T02:02:25.750Z,57.65
2023-04-21T02:04:27.559Z,57.63
2023-04-21T02:06:30.136Z,57.52
2023-04-21T02:08:31.764Z,57.62
2023-04-21T02:10:33.631Z,57.57
2023-04-21T02:12:35.268Z,57.76
2023-04-21T02:14:37.704Z,57.71
2023-04-21T02:16:39.403Z,57.78
2023-04-21T02:18:41.478Z,57.82
2023-04-21T02:20:43.089Z,57.94
2023-04-21T02:22:44.643Z,57.59
2023-04-21T02:24:46.263Z,57.91
2023-04-21T02:26:47.920Z,57.76
2023-04-21T02:28:50.437Z,57.85
2023-04-21T02:30:52.096Z,57.88
2023-04-21T02:32:53.924Z,57.70
2023-04-21T02:34:55.960Z,58.03
2023-04-21T02:36:57.789Z,57.99
2023-04-21T02:38:59.445Z,58.30
2023-04-21T02:41:01.397Z,58.49
2023-04-21T02:43:03.348Z,58.39
2023-04-21T02:45:05.465Z,58.47
2023-04-21T02:47:07.035Z,58.53
2023-04-21T02:49:09.700Z,58.43
2023-04-21T02:51:14.651Z,58.56
2023-04-21T02:53:16.814Z,58.35
2023-04-21T02:55:18.784Z,58.69
2023-04-21T02:57:20.354Z,58.63
2023-04-21T02:59:22.284Z,58.44
2023-04-21T03:01:24.215Z,58.40
2023-04-21T03:03:26.281Z,58.65
2023-04-21T03:05:27.951Z,58.38
2023-04-21T03:07:29.622Z,58.50
2023-04-21T03:09:31.265Z,58.39
2023-04-21T03:11:32.959Z,58.13
2023-04-21T03:13:34.538Z,58.14
2023-04-21T03:15:36.094Z,58.48
2023-04-21T03:17:37.684Z,58.33
2023-04-21T03:19:39.334Z,58.15
2023-04-21T03:21:40.943Z,58.22
2023-04-21T03:23:42.525Z,58.43
2023-04-21T03:25:44.099Z,58.13
2023-04-21T03:27:45.734Z,57.90
2023-04-21T03:29:47.301Z,57.91
2023-04-21T03:31:49.103Z,57.74
2023-04-21T03:33:50.840Z,57.79
2023-04-21T03:35:52.486Z,57.82
2023-04-21T03:37:54.138Z,58.07
2023-04-21T03:39:55.769Z,57.80
2023-04-21T03:41:57.849Z,58.01
2023-04-21T03:43:59.457Z,58.03
2023-04-21T03:46:01.112Z,57.86
2023-04-21T03:48:03.720Z,57.91
2023-04-21T03:50:06.132Z,58.22
2023-04-21T03:52:07.797Z,58.11
2023-04-21T03:54:09.425Z,58.21
2023-04-21T03:56:11.070Z,57.98
2023-04-21T03:58:12.720Z,58.04
2023-04-21T04:00:14.553Z,57.79
2023-04-21T04:02:16.190Z,57.94
2023-04-21T04:04:18.109Z,57.67
2023-04-21T04:06:19.923Z,57.42
2023-04-21T04:08:21.781Z,57.61
2023-04-21T04:10:23.359Z,57.41
2023-04-21T04:12:24.983Z,57.29
2023-04-21T04:14:26.618Z,57.42
2023-04-21T04:16:29.282Z,57.21
2023-04-21T04:18:31.014Z,57.23
2023-04-21T04:20:32.601Z,57.23
2023-04-21T04:22:35.510Z,57.23
2023-04-21T04:24:37.489Z,57.27
2023-04-21T04:26:40.106Z,57.21
2023-04-21T04:28:42.365Z,57.71
2023-04-21T04:30:43.930Z,57.32
2023-04-21T04:32:45.736Z,57.49
2023-04-21T04:34:47.438Z,57.33
2023-04-21T04:36:50.302Z,57.40
2023-04-21T04:38:51.848Z,57.19
2023-04-21T04:40:55.020Z,56.97
2023-04-21T04:42:56.726Z,57.18
2023-04-21T04:44:59.710Z,57.09
2023-04-21T04:47:01.506Z,57.05
2023-04-21T04:49:03.458Z,57.11
2023-04-21T04:51:05.987Z,56.68
2023-04-21T04:53:07.783Z,56.63
2023-04-21T04:55:09.388Z,56.54
2023-04-21T04:57:11.038Z,56.57
2023-04-21T04:59:12.686Z,56.64
2023-04-21T05:01:16.014Z,56.13
2023-04-21T05:03:18.088Z,56.55
2023-04-21T05:05:20.474Z,56.82
2023-04-21T05:07:22.121Z,57.06
2023-04-21T05:09:23.760Z,56.99
2023-04-21T05:11:25.529Z,57.16
2023-04-21T05:13:27.242Z,56.36
2023-04-21T05:15:28.818Z,56.59
2023-04-21T05:17:31.316Z,56.28
2023-04-21T05:19:36.399Z,56.49
2023-04-21T05:21:38.056Z,56.50
2023-04-21T05:23:39.653Z,56.43
2023-04-21T05:25:41.230Z,56.59
2023-04-21T05:27:43.454Z,56.23
2023-04-21T05:29:45.350Z,56.52
2023-04-21T05:31:47.030Z,57.20
2023-04-21T05:33:48.682Z,56.93
2023-04-21T05:35:50.378Z,56.78
2023-04-21T05:37:51.955Z,56.87
2023-04-21T05:39:53.592Z,56.98
2023-04-21T05:41:55.380Z,57.56
2023-04-21T05:43:57.010Z,57.74
2023-04-21T05:45:58.766Z,57.75
2023-04-21T05:48:00.417Z,57.98
2023-04-21T05:50:02.061Z,57.42
2023-04-21T05:52:03.766Z,57.30
2023-04-21T05:54:05.436Z,57.08
2023-04-21T05:56:09.009Z,56.69
2023-04-21T05:58:10.917Z,56.35
2023-04-21T06:00:13.051Z,56.34
2023-04-21T06:02:14.703Z,56.11
2023-04-21T06:04:16.671Z,56.03
2023-04-21T06:06:18.600Z,55.81
2023-04-21T06:08:20.372Z,56.06
2023-04-21T06:10:22.034Z,56.52
2023-04-21T06:12:23.621Z,56.86
2023-04-21T06:14:25.398Z,57.09
2023-04-21T06:16:27.308Z,56.73
2023-04-21T06:18:28.978Z,56.72
2023-04-21T06:20:30.684Z,55.74
2023-04-21T06:22:33.100Z,55.73
2023-04-21T06:24:34.732Z,55.60
2023-04-21T06:26:36.334Z,54.71
2023-04-21T06:28:39.346Z,55.08
2023-04-21T06:30:40.995Z,55.32
2023-04-21T06:32:42.637Z,55.02
2023-04-21T06:34:44.302Z,54.86
2023-04-21T06:36:45.908Z,55.46
2023-04-21T06:38:47.522Z,55.38
2023-04-21T06:40:49.363Z,54.72
2023-04-21T06:42:50.919Z,53.74
2023-04-21T06:44:52.657Z,53.29
2023-04-21T06:46:54.358Z,53.92
2023-04-21T06:48:56.025Z,54.92
2023-04-21T06:50:57.676Z,55.47
2023-04-21T06:52:59.316Z,54.40
2023-04-21T06:55:00.944Z,54.15
2023-04-21T06:57:02.512Z,53.70
2023-04-21T06:59:04.127Z,53.81
2023-04-21T07:01:05.732Z,53.24
2023-04-21T07:03:07.696Z,55.30
2023-04-21T07:05:09.604Z,55.93
2023-04-21T07:07:11.294Z,56.00
2023-04-21T07:09:13.168Z,55.27
2023-04-21T07:11:14.780Z,55.26
2023-04-21T07:13:17.836Z,56.34
2023-04-21T07:15:19.648Z,56.54
2023-04-21T07:17:21.364Z,55.55
2023-04-21T07:19:23.523Z,54.51
2023-04-21T07:21:25.321Z,54.23
2023-04-21T07:23:26.955Z,53.45
2023-04-21T07:25:28.543Z,53.48
2023-04-21T07:27:30.154Z,53.43
2023-04-21T07:29:31.975Z,53.27
2023-04-21T07:31:33.712Z,53.07
2023-04-21T07:33:35.679Z,53.27
2023-04-21T07:35:37.360Z,52.91
2023-04-21T07:37:40.514Z,53.25
2023-04-21T07:39:42.646Z,53.33
2023-04-21T07:41:44.299Z,52.97
2023-04-21T07:43:45.968Z,52.65
2023-04-21T07:45:47.749Z,52.80
2023-04-21T07:47:49.486Z,52.01
2023-04-21T07:49:51.098Z,51.36
2023-04-21T07:51:52.789Z,50.70
2023-04-21T07:53:54.577Z,50.38
2023-04-21T07:55:56.196Z,50.40
2023-04-21T07:57:57.839Z,50.28
2023-04-21T07:59:59.494Z,49.80
2023-04-21T08:02:02.076Z,49.37
2023-04-21T08:04:03.952Z,49.12
2023-04-21T08:06:06.012Z,49.23
2023-04-21T08:08:07.850Z,49.22
2023-04-21T08:10:10.266Z,49.02
2023-04-21T08:12:11.851Z,49.52
2023-04-21T08:14:13.897Z,49.77
2023-04-21T08:16:15.515Z,49.74
2023-04-21T08:18:22.111Z,49.98
2023-04-21T08:20:24.225Z,49.67
2023-04-21T08:22:26.249Z,49.89
2023-04-21T08:24:27.871Z,50.05
2023-04-21T08:26:30.344Z,50.05
2023-04-21T08:28:31.991Z,50.08
2023-04-21T08:30:33.618Z,49.93
2023-04-21T08:32:35.362Z,50.41
2023-04-21T08:34:37.039Z,50.23
2023-04-21T08:36:38.679Z,49.65
2023-04-21T08:38:43.139Z,50.25
2023-04-21T08:40:44.954Z,50.48
2023-04-21T08:42:48.070Z,50.42
2023-04-21T08:44:49.754Z,50.10
2023-04-21T08:46:53.065Z,50.22
2023-04-21T08:48:55.488Z,50.75
2023-04-21T08:50:57.276Z,50.99
2023-04-21T08:52:58.895Z,52.43
2023-04-21T08:55:00.720Z,52.03
2023-04-21T08:57:14.021Z,51.67
2023-04-21T08:59:16.637Z,51.53
2023-04-21T09:01:18.352Z,50.53
2023-04-21T09:03:27.584Z,50.04
2023-04-21T09:05:33.756Z,49.47
2023-04-21T09:07:39.197Z,49.97
2023-04-21T09:09:57.054Z,51.15
2023-04-21T09:11:59.113Z,50.02
2023-04-21T09:14:00.725Z,49.60
2023-04-21T09:16:07.326Z,48.67
2023-04-21T09:18:21.198Z,48.92
2023-04-21T09:20:23.496Z,47.75
2023-04-21T09:22:27.675Z,47.43
2023-04-21T09:24:30.086Z,47.22
2023-04-21T09:26:33.321Z,46.87
2023-04-21T09:28:36.054Z,45.90
2023-04-21T09:30:39.010Z,45.67
2023-04-21T09:32:41.035Z,46.02
2023-04-21T09:34:43.985Z,45.63
2023-04-21T09:36:46.868Z,45.43
2023-04-21T09:39:30.124Z,45.42
2023-04-21T09:41:25.436Z,45.87
2023-04-21T09:43:27.151Z,45.43
2023-04-21T09:45:39.602Z,46.64
2023-04-21T09:47:43.128Z,47.83
2023-04-21T09:49:44.803Z,48.17
2023-04-21T09:53:53.720Z,46.28
2023-04-21T09:55:57.132Z,46.37
2023-04-21T09:58:00.739Z,46.31
2023-04-21T10:00:06.203Z,46.44
2023-04-21T10:02:08.407Z,46.76
2023-04-21T10:04:10.804Z,44.73
2023-04-21T10:06:13.123Z,44.57
2023-04-21T10:08:17.074Z,44.44
2023-04-21T10:10:28.552Z,44.02
2023-04-21T10:12:30.355Z,44.05
2023-04-21T10:14:32.187Z,44.83
2023-04-21T10:16:36.946Z,45.21
2023-04-21T10:18:43.367Z,46.75
2023-04-21T10:21:07.325Z,47.41
2023-04-21T10:23:08.934Z,48.73
2023-04-21T10:25:10.527Z,48.47
2023-04-21T10:27:12.935Z,47.73
2023-04-21T10:29:16.230Z,47.11
2023-04-21T10:31:20.272Z,46.39
2023-04-21T10:33:23.856Z,45.55
2023-04-21T10:35:25.568Z,45.25
2023-04-21T10:37:31.488Z,45.06
2023-04-21T10:39:38.286Z,47.15
2023-04-21T10:41:39.959Z,48.23
2023-04-21T10:43:49.923Z,48.46
2023-04-21T10:45:51.777Z,48.53
2023-04-21T10:47:53.858Z,47.38
2023-04-21T10:49:59.422Z,46.73
2023-04-21T10:52:02.724Z,45.27
2023-04-21T10:54:05.821Z,45.38
2023-04-21T10:56:07.959Z,45.34
2023-04-21T10:58:09.899Z,45.45
2023-04-21T11:00:16.154Z,45.75
2023-04-21T11:02:18.907Z,45.22
2023-04-21T11:04:22.645Z,45.70
2023-04-21T11:06:24.821Z,45.63
2023-04-21T11:08:26.457Z,44.93
2023-04-21T11:10:28.051Z,43.53
2023-04-21T11:12:32.155Z,43.07
2023-04-21T11:14:36.594Z,43.34
2023-04-21T11:16:42.695Z,43.84
2023-04-21T11:18:45.239Z,44.11
2023-04-21T11:20:46.899Z,44.31
2023-04-21T11:22:52.719Z,44.77
2023-04-21T11:24:57.101Z,44.73
2023-04-21T11:27:01.177Z,44.75
2023-04-21T11:29:04.381Z,43.74
2023-04-21T11:31:06.124Z,42.37
2023-04-21T11:33:07.839Z,42.64
2023-04-21T11:35:10.353Z,44.06
2023-04-21T11:37:26.908Z,44.88
2023-04-21T11:39:28.597Z,45.12
2023-04-21T11:41:30.503Z,45.17
2023-04-21T11:43:32.160Z,43.88
2023-04-21T11:45:35.095Z,43.56
2023-04-21T11:47:37.668Z,43.28
2023-04-21T11:49:48.236Z,42.29
2023-04-21T11:51:50.327Z,42.90
2023-04-21T11:53:53.026Z,43.22
2023-04-21T11:55:57.004Z,43.16
2023-04-21T11:57:58.822Z,42.83
2023-04-21T12:00:02.156Z,43.19
2023-04-21T12:02:03.981Z,44.13
2023-04-21T12:04:05.810Z,44.37
2023-04-21T12:06:07.967Z,43.63
2023-04-21T12:08:16.389Z,43.38
2023-04-21T12:10:20.386Z,42.83
2023-04-21T12:12:24.206Z,42.54
2023-04-21T12:14:28.834Z,42.16
2023-04-21T12:16:30.605Z,42.53
2023-04-21T12:18:34.902Z,43.34
2023-04-21T12:20:37.755Z,42.86
2023-04-21T12:22:39.386Z,43.00
2023-04-21T12:24:41.658Z,43.07
2023-04-21T12:26:43.403Z,42.83
2023-04-21T12:28:45.078Z,42.88
2023-04-21T12:30:46.709Z,42.97
2023-04-21T12:32:48.773Z,43.04
2023-04-21T12:34:50.865Z,42.91
2023-04-21T12:36:52.608Z,42.72
2023-04-21T12:38:54.197Z,42.97
2023-04-21T12:40:55.862Z,43.74
2023-04-21T12:42:57.479Z,43.66
2023-04-21T12:44:59.188Z,43.46
2023-04-21T12:47:01.027Z,42.93
2023-04-21T12:49:03.775Z,42.78
2023-04-21T12:51:05.517Z,41.83
2023-04-21T12:53:07.449Z,41.85
2023-04-21T12:55:09.328Z,42.68
2023-04-21T12:57:11.485Z,43.16
2023-04-21T12:59:13.239Z,44.26
2023-04-21T13:01:16.173Z,44.66
2023-04-21T13:03:18.044Z,44.86
2023-04-21T13:05:20.013Z,44.80
2023-04-21T13:07:22.716Z,45.13
2023-04-21T13:09:24.377Z,45.61
2023-04-21T13:11:26.172Z,45.55
2023-04-21T13:13:27.724Z,44.48
2023-04-21T13:15:29.341Z,44.51
2023-04-21T13:17:31.031Z,44.59
2023-04-21T13:19:32.932Z,43.94
2023-04-21T13:21:34.879Z,43.28
2023-04-21T13:23:36.552Z,42.94
2023-04-21T13:25:38.194Z,43.27
2023-04-21T13:27:40.404Z,43.20
2023-04-21T13:29:42.017Z,43.40
2023-04-21T13:31:43.571Z,43.40
2023-04-21T13:33:45.436Z,43.29
2023-04-21T13:35:47.147Z,43.24
2023-04-21T13:37:50.062Z,42.28
2023-04-21T13:39:51.954Z,42.37
2023-04-21T13:41:54.282Z,42.66
2023-04-21T13:43:56.172Z,42.76
2023-04-21T13:45:57.832Z,42.79
2023-04-21T13:47:59.581Z,42.84
2023-04-21T13:50:01.452Z,42.92
2023-04-21T13:52:03.093Z,43.18
2023-04-21T13:54:05.207Z,43.02
2023-04-21T13:56:06.827Z,43.25
2023-04-21T13:58:09.187Z,42.92
2023-04-21T14:00:11.914Z,42.92
2023-04-21T14:02:13.899Z,42.44
2023-04-21T14:04:15.629Z,41.85
2023-04-21T14:06:17.567Z,41.89
2023-04-21T14:08:19.242Z,42.02
2023-04-21T14:10:20.911Z,40.45
2023-04-21T14:12:22.573Z,40.34
2023-04-21T14:14:35.545Z,39.90
2023-04-21T14:16:39.971Z,39.81
2023-04-21T14:18:45.148Z,39.44
2023-04-21T14:20:46.782Z,39.54
2023-04-21T14:22:48.430Z,39.34
2023-04-21T14:24:50.290Z,39.11
2023-04-21T14:26:51.914Z,38.55
2023-04-21T14:28:53.614Z,38.50
2023-04-21T14:30:55.294Z,37.74
2023-04-21T14:32:56.973Z,38.63
2023-04-21T14:34:59.849Z,39.13
2023-04-21T14:37:01.637Z,39.49
2023-04-21T14:39:03.701Z,38.81
2023-04-21T14:41:05.486Z,38.38
2023-04-21T14:43:07.223Z,37.83
2023-04-21T14:45:09.463Z,38.05
2023-04-21T14:47:11.236Z,38.77
2023-04-21T14:49:13.369Z,39.35
2023-04-21T14:51:15.092Z,39.62
2023-04-21T14:53:16.680Z,39.96
2023-04-21T14:55:18.397Z,41.57
2023-04-21T14:57:21.854Z,43.07
2023-04-21T14:59:23.692Z,43.81
2023-04-21T15:01:26.254Z,45.45
2023-04-21T15:03:28.216Z,47.35
2023-04-21T15:05:30.215Z,48.49
2023-04-21T15:07:31.899Z,48.40
2023-04-21T15:09:34.035Z,47.55
2023-04-21T15:11:35.826Z,46.89
2023-04-21T15:13:37.765Z,47.89
2023-04-21T15:15:40.579Z,47.46
2023-04-21T15:17:42.287Z,48.88
2023-04-21T15:19:43.901Z,48.93
2023-04-21T15:21:45.785Z,49.27
2023-04-21T15:23:47.417Z,48.66
2023-04-21T15:25:49.065Z,47.10
2023-04-21T15:27:50.756Z,47.47
2023-04-21T15:29:52.545Z,47.70
2023-04-21T15:31:54.520Z,46.22
2023-04-21T15:33:56.173Z,46.07
2023-04-21T15:35:57.843Z,45.91
2023-04-21T15:37:59.456Z,45.73
2023-04-21T15:40:01.067Z,44.36
2023-04-21T15:42:04.410Z,43.39
2023-04-21T15:44:06.279Z,43.98
2023-04-21T15:46:13.339Z,43.12
2023-04-21T15:48:16.899Z,42.69
2023-04-21T15:50:18.719Z,42.04
2023-04-21T15:52:20.583Z,42.48
2023-04-21T15:54:22.934Z,41.72
2023-04-21T15:56:24.702Z,41.72
2023-04-21T15:58:26.419Z,41.74
2023-04-21T16:00:29.663Z,42.16
2023-04-21T16:02:31.915Z,41.60
2023-04-21T16:04:34.056Z,41.45
2023-04-21T16:06:36.303Z,41.39
2023-04-21T16:08:38.101Z,41.54
2023-04-21T16:10:39.813Z,41.17
2023-04-21T16:12:44.546Z,41.32
2023-04-21T16:14:56.084Z,41.81
2023-04-21T16:17:03.330Z,42.48
2023-04-21T16:19:04.973Z,42.84
2023-04-21T16:21:06.929Z,43.27
2023-04-21T16:23:09.194Z,43.48
2023-04-21T16:25:13.968Z,43.21
2023-04-21T16:27:15.739Z,43.45
2023-04-21T16:29:17.380Z,43.31
2023-04-21T16:31:18.988Z,43.42
2023-04-21T16:33:20.838Z,43.56
2023-04-21T16:35:22.555Z,44.11
2023-04-21T16:37:24.392Z,44.02
2023-04-21T16:39:26.120Z,43.74
2023-04-21T16:41:27.730Z,43.10
2023-04-21T16:43:29.454Z,42.80
2023-04-21T16:45:31.118Z,42.88
2023-04-21T16:47:37.855Z,42.96
2023-04-21T16:49:41.573Z,42.54
2023-04-21T16:51:45.074Z,42.71
2023-04-21T16:53:46.919Z,42.95
2023-04-21T16:55:48.523Z,43.56
2023-04-21T16:57:50.264Z,44.07
2023-04-21T16:59:53.081Z,44.37
2023-04-21T17:01:54.749Z,44.44
2023-04-21T17:03:56.464Z,44.58
2023-04-21T17:05:58.191Z,44.86
2023-04-21T17:07:59.817Z,45.61
2023-04-21T17:10:01.603Z,45.92
2023-04-21T17:12:04.011Z,46.40
2023-04-21T17:14:05.664Z,46.51
2023-04-21T17:16:10.512Z,46.67
2023-04-21T17:18:12.213Z,46.59
2023-04-21T17:20:14.412Z,46.72
2023-04-21T17:22:16.129Z,47.03
2023-04-21T17:24:17.736Z,47.39
2023-04-21T17:26:19.367Z,47.33
2023-04-21T17:28:21.082Z,47.64
2023-04-21T17:30:23.381Z,47.78
2023-04-21T17:32:25.189Z,47.83
2023-04-21T17:34:27.079Z,47.96
2023-04-21T17:36:32.093Z,47.91
2023-04-21T17:38:33.846Z,48.07
2023-04-21T17:40:35.411Z,48.09
2023-04-21T17:42:37.133Z,48.16
2023-04-21T17:44:40.719Z,48.35
2023-04-21T17:46:43.618Z,48.78
2023-04-21T17:48:45.797Z,48.68
2023-04-21T17:50:47.421Z,48.90
2023-04-21T17:52:49.640Z,49.07
2023-04-21T17:54:51.198Z,49.27
2023-04-21T17:56:52.923Z,49.23
2023-04-21T17:58:54.849Z,49.38
2023-04-21T18:00:57.072Z,49.54
2023-04-21T18:02:58.894Z,50.10
2023-04-21T18:05:00.694Z,50.33
2023-04-21T18:07:03.034Z,50.08
2023-04-21T18:09:05.204Z,50.08
2023-04-21T18:11:06.900Z,50.21
2023-04-21T18:13:08.464Z,50.70
2023-04-21T18:15:10.773Z,50.85
2023-04-21T18:17:12.794Z,51.51
2023-04-21T18:19:16.136Z,51.81
2023-04-21T18:21:17.884Z,51.54
2023-04-21T18:23:19.448Z,51.59
2023-04-21T18:25:34.062Z,51.36
2023-04-21T18:27:42.704Z,51.22
2023-04-21T18:29:44.326Z,51.72
2023-04-21T18:31:45.963Z,51.49
2023-04-21T18:33:48.195Z,51.70
2023-04-21T18:35:49.888Z,51.12
2023-04-21T18:37:51.638Z,51.15
2023-04-21T18:39:53.349Z,51.00
2023-04-21T18:41:54.938Z,50.57
2023-04-21T18:43:56.555Z,50.36
2023-04-21T18:45:58.238Z,50.74
2023-04-21T18:47:59.888Z,50.39
2023-04-21T18:50:01.872Z,50.32
2023-04-21T18:52:03.560Z,50.75
2023-04-21T18:54:05.427Z,51.19
2023-04-21T18:56:07.078Z,51.26
2023-04-21T18:58:08.696Z,51.62
2023-04-21T19:00:11.039Z,51.77
2023-04-21T19:02:13.780Z,51.82
2023-04-21T19:04:15.675Z,52.39
2023-04-21T19:06:17.483Z,52.15
2023-04-21T19:08:30.039Z,52.58
2023-04-21T19:10:37.562Z,52.51
2023-04-21T19:12:41.556Z,52.38
2023-04-21T19:14:47.591Z,52.48
2023-04-21T19:16:51.885Z,52.66
2023-04-21T19:18:53.952Z,52.35
2023-04-21T19:20:55.503Z,52.42
2023-04-21T19:22:57.233Z,52.22
2023-04-21T19:24:58.881Z,52.07
2023-04-21T19:27:02.326Z,52.24
2023-04-21T19:29:04.949Z,52.24
2023-04-21T19:31:07.024Z,52.30
2023-04-21T19:33:08.600Z,52.69
2023-04-21T19:35:10.501Z,52.56
2023-04-21T19:37:13.506Z,52.71
2023-04-21T19:39:15.096Z,52.47
2023-04-21T19:41:16.688Z,52.65
2023-04-21T19:43:20.315Z,52.87
2023-04-21T19:45:22.154Z,52.79
2023-04-21T19:47:23.715Z,52.85
2023-04-21T19:49:25.506Z,52.93
2023-04-21T19:51:27.946Z,53.24
2023-04-21T19:53:29.618Z,52.87
2023-04-21T19:55:31.593Z,52.68
2023-04-21T19:57:33.295Z,52.76
2023-04-21T19:59:35.009Z,53.00
2023-04-21T20:01:36.883Z,52.86
2023-04-21T20:03:38.807Z,53.04
2023-04-21T20:05:40.766Z,53.17
2023-04-21T20:07:42.396Z,52.97
2023-04-21T20:09:44.147Z,53.15
2023-04-21T20:11:45.923Z,53.17
2023-04-21T20:13:47.733Z,53.24
2023-04-21T20:15:49.467Z,53.41
2023-04-21T20:17:51.225Z,52.82
2023-04-21T20:19:53.911Z,53.13
2023-04-21T20:21:55.517Z,53.64
2023-04-21T20:23:57.128Z,53.63
2023-04-21T20:25:58.727Z,54.24
2023-04-21T20:28:00.573Z,54.28
2023-04-21T20:30:02.236Z,54.00
2023-04-21T20:32:03.869Z,54.58
2023-04-21T20:34:05.558Z,54.62
2023-04-21T20:36:09.819Z,54.63
2023-04-21T20:38:11.758Z,53.87
2023-04-21T20:40:14.761Z,54.00
2023-04-21T20:42:17.120Z,54.42
2023-04-21T20:44:20.837Z,54.01
2023-04-21T20:46:23.773Z,53.95
2023-04-21T20:48:26.478Z,53.82
2023-04-21T20:50:28.162Z,53.74
2023-04-21T20:52:29.928Z,53.55
2023-04-21T20:54:34.522Z,53.50
2023-04-21T20:56:36.395Z,53.24
2023-04-21T20:58:38.110Z,53.24
2023-04-21T21:00:39.825Z,53.53
2023-04-21T21:02:42.104Z,53.67
2023-04-21T21:04:43.927Z,53.98
2023-04-21T21:06:45.572Z,54.28
2023-04-21T21:08:47.170Z,55.80
2023-04-21T21:10:49.711Z,57.54
2023-04-21T21:12:51.384Z,59.41
2023-04-21T21:14:53.050Z,60.42
2023-04-21T21:16:55.428Z,60.98
2023-04-21T21:18:57.060Z,60.42
2023-04-21T21:20:58.621Z,61.06
2023-04-21T21:23:00.218Z,61.83
2023-04-21T21:25:01.874Z,62.98
2023-04-21T21:27:03.622Z,63.27
2023-04-21T21:29:05.262Z,63.38
2023-04-21T21:31:06.936Z,62.47
2023-04-21T21:33:08.792Z,61.72
2023-04-21T21:35:11.894Z,60.87
2023-04-21T21:37:13.659Z,60.35
2023-04-21T21:39:15.552Z,59.87
2023-04-21T21:41:18.869Z,59.52
2023-04-21T21:43:20.539Z,59.49
2023-04-21T21:45:23.200Z,58.97
2023-04-21T21:47:24.927Z,59.13
2023-04-21T21:49:26.770Z,58.84
2023-04-21T21:51:28.984Z,58.51
2023-04-21T21:53:30.646Z,58.15
2023-04-21T21:55:32.330Z,58.25
2023-04-21T21:57:34.189Z,58.26
2023-04-21T21:59:36.162Z,57.99
2023-04-21T22:01:38.028Z,57.60
2023-04-21T22:03:39.832Z,57.94
2023-04-21T22:05:41.694Z,57.84
2023-04-21T22:07:43.262Z,58.05
2023-04-21T22:09:45.295Z,58.41
2023-04-21T22:11:46.914Z,58.81
2023-04-21T22:13:48.544Z,59.19
2023-04-21T22:15:50.198Z,59.34
2023-04-21T22:17:52.153Z,59.33
2023-04-21T22:19:54.098Z,59.98
2023-04-21T22:21:56.311Z,60.62
2023-04-21T22:23:58.160Z,61.58
2023-04-21T22:25:59.857Z,61.74
2023-04-21T22:28:01.538Z,62.24
2023-04-21T22:30:03.724Z,61.96
2023-04-21T22:47:00.717Z,59.58
2023-04-21T22:49:03.368Z,59.59
2023-04-21T22:51:06.395Z,59.67
2023-04-21T22:53:07.995Z,59.96
2023-04-21T22:55:10.148Z,60.04
2023-04-21T22:57:11.734Z,59.63
2023-04-21T22:59:13.330Z,59.35
2023-04-21T23:01:15.204Z,59.24
2023-04-21T23:03:16.995Z,59.62
2023-04-21T23:05:18.870Z,59.78
2023-04-21T23:07:21.339Z,59.81
2023-04-21T23:09:23.620Z,59.83
2023-04-21T23:11:25.321Z,60.44
2023-04-21T23:13:26.978Z,60.46
2023-04-21T23:15:28.806Z,60.29
2023-04-21T23:17:30.733Z,60.45
2023-04-21T23:19:32.383Z,61.32
2023-04-21T23:21:34.097Z,62.00
2023-04-21T23:23:35.781Z,62.66
2023-04-21T23:25:37.422Z,62.71
2023-04-21T23:27:39.021Z,62.41
2023-04-21T23:29:40.912Z,61.83
2023-04-21T23:31:42.826Z,61.18
2023-04-21T23:33:44.682Z,60.94
2023-04-21T23:35:46.279Z,60.73
2023-04-21T23:37:48.800Z,60.82
2023-04-21T23:39:50.463Z,60.75
2023-04-21T23:41:52.135Z,60.43
2023-04-21T23:43:53.780Z,60.58
2023-04-21T23:45:55.483Z,60.33
2023-04-21T23:47:57.083Z,60.38
2023-04-21T23:49:59.054Z,60.25
2023-04-21T23:52:00.827Z,60.22
2023-04-21T23:54:02.831Z,60.47
2023-04-21T23:56:04.440Z,60.39
2023-04-21T23:58:06.034Z,60.76
